createdAt,value
2019-03-31T00:01:10.996Z,45.57
2019-03-31T00:03:40.676Z,51.33
2019-03-31T00:06:10.591Z,51.07
2019-03-31T00:08:40.307Z,51.90
2019-03-31T00:11:10.047Z,46.50
2019-03-31T00:13:39.688Z,49.50
2019-03-31T00:16:09.363Z,47.17
2019-03-31T00:18:39.235Z,55.27
2019-03-31T00:21:08.890Z,57.53
2019-03-31T00:23:38.570Z,55.27
2019-03-31T00:26:08.221Z,54.53
2019-03-31T00:28:37.996Z,58.40
2019-03-31T00:31:21.219Z,54.07
2019-03-31T00:33:39.355Z,46.80
2019-03-31T00:36:09.500Z,51.63
2019-03-31T00:38:39.208Z,48.77
2019-03-31T00:41:08.915Z,46.33
2019-03-31T00:43:38.601Z,47.23
2019-03-31T00:46:08.286Z,47.23
2019-03-31T00:48:37.976Z,40.33
2019-03-31T00:51:07.615Z,36.77
2019-03-31T00:53:37.340Z,34.97
2019-03-31T00:56:07.454Z,34.30
2019-03-31T00:58:37.192Z,36.57
2019-03-31T01:01:36.829Z,35.90
2019-03-31T01:04:03.917Z,35.43
2019-03-31T01:06:34.353Z,34.20
2019-03-31T01:09:07.496Z,37.97
2019-03-31T01:11:37.205Z,33.30
2019-03-31T01:14:06.809Z,38.67
2019-03-31T01:16:36.449Z,37.63
2019-03-31T01:19:06.167Z,40.60
2019-03-31T01:21:35.811Z,38.40
2019-03-31T01:24:05.489Z,36.33
2019-03-31T01:26:35.134Z,35.57
2019-03-31T01:29:05.165Z,35.20
2019-03-31T01:31:34.816Z,36.27
2019-03-31T01:34:04.714Z,34.10
2019-03-31T01:36:34.699Z,32.37
2019-03-31T01:39:05.497Z,30.70
2019-03-31T01:41:35.149Z,29.23
2019-03-31T01:44:04.965Z,28.47
2019-03-31T01:46:34.623Z,30.67
2019-03-31T01:49:04.299Z,31.97
2019-03-31T01:51:33.949Z,30.03
2019-03-31T01:54:03.649Z,32.17
2019-03-31T01:56:33.304Z,32.93
2019-03-31T01:59:03.220Z,30.40
2019-03-31T02:01:32.939Z,32.57
2019-03-31T02:04:02.805Z,31.57
2019-03-31T02:06:32.456Z,29.63
2019-03-31T02:09:02.241Z,30.60
2019-03-31T02:11:31.889Z,31.17
2019-03-31T02:14:01.650Z,30.63
2019-03-31T02:16:31.310Z,29.50
2019-03-31T02:19:01.041Z,30.50
2019-03-31T02:21:31.167Z,29.53
2019-03-31T02:24:00.871Z,30.73
2019-03-31T02:26:30.535Z,27.70
2019-03-31T02:29:00.239Z,26.63
2019-03-31T02:31:29.899Z,30.30
2019-03-31T02:33:59.607Z,25.73
2019-03-31T02:36:29.246Z,29.00
2019-03-31T02:38:58.951Z,29.10
2019-03-31T02:41:28.662Z,28.83
2019-03-31T02:43:58.371Z,29.27
2019-03-31T02:46:28.003Z,27.13
2019-03-31T02:48:57.681Z,26.37
2019-03-31T02:51:27.646Z,28.23
2019-03-31T02:53:57.337Z,26.30
2019-03-31T02:56:28.220Z,26.40
2019-03-31T02:58:58.897Z,28.93
2019-03-31T03:01:29.750Z,28.93
2019-03-31T03:04:01.603Z,30.30
2019-03-31T03:06:32.424Z,26.37
2019-03-31T03:09:06.189Z,26.93
2019-03-31T03:11:36.884Z,29.47
2019-03-31T03:14:07.043Z,29.93
2019-03-31T03:16:36.697Z,30.63
2019-03-31T03:19:06.403Z,31.43
2019-03-31T03:21:36.058Z,31.57
2019-03-31T03:24:05.735Z,31.53
2019-03-31T03:26:35.378Z,32.10
2019-03-31T03:29:05.081Z,31.63
2019-03-31T03:31:34.713Z,31.10
2019-03-31T03:34:04.431Z,29.47
2019-03-31T03:36:34.077Z,29.67
2019-03-31T03:39:06.079Z,109.67
2019-03-31T03:41:35.746Z,68.70
2019-03-31T03:44:05.388Z,41.50
2019-03-31T03:46:35.206Z,40.33
2019-03-31T03:49:05.144Z,39.50
2019-03-31T03:51:34.937Z,39.83
2019-03-31T03:54:04.571Z,38.97
2019-03-31T03:56:34.241Z,42.17
2019-03-31T03:59:03.882Z,37.47
2019-03-31T04:01:33.569Z,38.97
2019-03-31T04:04:03.237Z,38.90
2019-03-31T04:06:32.950Z,39.23
2019-03-31T04:09:02.588Z,39.23
2019-03-31T04:11:32.283Z,39.30
2019-03-31T04:14:01.961Z,38.63
2019-03-31T04:16:31.731Z,36.53
2019-03-31T04:19:01.381Z,37.67
2019-03-31T04:21:31.098Z,37.10
2019-03-31T04:24:00.733Z,38.87
2019-03-31T04:26:30.416Z,40.47
2019-03-31T04:29:00.154Z,39.33
2019-03-31T04:31:29.777Z,40.10
2019-03-31T04:33:59.457Z,41.10
2019-03-31T04:36:29.170Z,43.37
2019-03-31T04:39:00.435Z,41.07
2019-03-31T04:41:30.542Z,46.33
2019-03-31T04:44:00.215Z,46.67
2019-03-31T04:46:29.900Z,51.50
2019-03-31T04:48:59.775Z,44.57
2019-03-31T04:51:29.507Z,49.97
2019-03-31T04:53:59.229Z,54.70
2019-03-31T04:56:28.907Z,48.70
2019-03-31T04:58:58.578Z,51.90
2019-03-31T05:01:28.342Z,52.37
2019-03-31T05:04:05.117Z,58.63
2019-03-31T05:06:29.774Z,62.67
2019-03-31T05:08:59.384Z,63.00
2019-03-31T05:11:29.062Z,60.57
2019-03-31T05:13:58.737Z,60.50
2019-03-31T05:16:28.488Z,85.73
2019-03-31T05:18:58.188Z,65.10
2019-03-31T05:21:27.893Z,62.37
2019-03-31T05:23:57.590Z,63.87
2019-03-31T05:26:27.598Z,66.43
2019-03-31T05:28:57.268Z,68.17
2019-03-31T05:31:26.906Z,66.83
2019-03-31T05:33:56.579Z,81.33
2019-03-31T05:36:26.226Z,84.37
2019-03-31T05:38:55.888Z,82.57
2019-03-31T05:41:25.666Z,92.17
2019-03-31T05:44:05.607Z,86.93
2019-03-31T05:46:26.971Z,84.17
2019-03-31T05:48:56.666Z,83.40
2019-03-31T05:51:26.227Z,84.70
2019-03-31T05:53:56.013Z,90.27
2019-03-31T05:56:25.728Z,88.80
2019-03-31T05:58:55.403Z,89.60
2019-03-31T06:01:25.318Z,89.77
2019-03-31T06:03:54.995Z,86.80
2019-03-31T06:06:24.648Z,86.90
2019-03-31T06:08:54.357Z,90.50
2019-03-31T06:11:24.087Z,88.57
2019-03-31T06:13:53.819Z,93.17
2019-03-31T06:16:23.535Z,92.10
2019-03-31T06:18:53.115Z,88.47
2019-03-31T06:21:23.018Z,86.60
2019-03-31T06:23:52.706Z,88.70
2019-03-31T06:26:22.446Z,94.20
2019-03-31T06:28:52.123Z,86.50
2019-03-31T06:31:21.975Z,88.37
2019-03-31T06:33:51.700Z,83.60
2019-03-31T06:36:21.348Z,82.40
2019-03-31T06:38:51.113Z,83.13
2019-03-31T06:41:21.098Z,77.60
2019-03-31T06:43:50.735Z,81.63
2019-03-31T06:46:20.410Z,85.73
2019-03-31T06:48:50.130Z,80.33
2019-03-31T06:51:20.113Z,75.47
2019-03-31T06:53:50.200Z,68.30
2019-03-31T06:56:19.956Z,69.17
2019-03-31T06:58:49.633Z,67.53
2019-03-31T07:01:19.360Z,61.07
2019-03-31T07:03:49.146Z,66.17
2019-03-31T07:06:19.012Z,68.20
2019-03-31T07:08:49.238Z,66.93
2019-03-31T07:11:19.125Z,63.77
2019-03-31T07:13:48.923Z,61.83
2019-03-31T07:16:21.860Z,71.17
2019-03-31T07:18:52.129Z,64.60
2019-03-31T07:21:21.842Z,68.07
2019-03-31T07:23:51.579Z,69.33
2019-03-31T07:26:21.352Z,72.30
2019-03-31T07:28:51.049Z,72.60
2019-03-31T07:31:20.722Z,71.50
2019-03-31T07:33:50.365Z,74.43
2019-03-31T07:36:20.318Z,79.77
2019-03-31T07:38:50.046Z,76.27
2019-03-31T07:41:20.171Z,74.00
2019-03-31T07:43:49.887Z,67.23
2019-03-31T07:46:19.654Z,71.27
2019-03-31T07:48:49.230Z,72.57
2019-03-31T07:51:18.977Z,76.07
2019-03-31T07:53:48.591Z,88.43
2019-03-31T07:56:18.271Z,75.00
2019-03-31T07:58:48.037Z,74.33
2019-03-31T08:01:17.863Z,78.77
2019-03-31T08:03:47.510Z,65.53
2019-03-31T08:06:17.258Z,62.40
2019-03-31T08:08:47.025Z,61.53
2019-03-31T08:11:17.369Z,59.00
2019-03-31T08:13:47.157Z,57.40
2019-03-31T08:16:16.962Z,60.97
2019-03-31T08:18:46.626Z,55.13
2019-03-31T08:21:16.298Z,52.43
2019-03-31T08:23:45.984Z,50.67
2019-03-31T08:26:15.732Z,51.47
2019-03-31T08:28:45.395Z,53.73
2019-03-31T08:31:15.116Z,51.50
2019-03-31T08:33:44.742Z,52.47
2019-03-31T08:36:14.495Z,51.33
2019-03-31T08:38:44.175Z,60.40
2019-03-31T08:41:13.812Z,50.87
2019-03-31T08:43:43.500Z,52.33
2019-03-31T08:46:13.238Z,53.27
2019-03-31T08:48:42.909Z,49.57
2019-03-31T08:51:12.532Z,38.97
2019-03-31T08:53:42.163Z,46.77
2019-03-31T08:56:11.795Z,47.17
2019-03-31T08:58:41.608Z,40.60
2019-03-31T09:01:13.742Z,49.07
2019-03-31T09:03:43.428Z,47.23
2019-03-31T09:06:13.128Z,38.33
2019-03-31T09:08:42.715Z,35.00
2019-03-31T09:11:12.378Z,30.90
2019-03-31T09:13:42.001Z,45.40
2019-03-31T09:16:11.696Z,37.27
2019-03-31T09:18:41.687Z,38.00
2019-03-31T09:21:11.416Z,35.23
2019-03-31T09:23:41.179Z,38.63
2019-03-31T09:26:10.931Z,38.90
2019-03-31T09:28:40.614Z,33.97
2019-03-31T09:31:10.359Z,29.47
2019-03-31T09:33:40.023Z,33.40
2019-03-31T09:36:16.206Z,28.93
2019-03-31T09:38:42.095Z,26.53
2019-03-31T09:41:11.819Z,25.67
2019-03-31T09:43:41.444Z,23.83
2019-03-31T09:46:11.127Z,21.53
2019-03-31T09:48:40.831Z,23.37
2019-03-31T09:51:10.489Z,24.07
2019-03-31T09:53:40.205Z,24.60
2019-03-31T09:56:09.939Z,24.53
2019-03-31T09:58:39.854Z,21.13
2019-03-31T10:01:09.523Z,22.30
2019-03-31T10:03:39.418Z,22.17
2019-03-31T10:06:10.936Z,22.63
2019-03-31T10:08:40.703Z,18.63
2019-03-31T10:11:10.332Z,16.60
2019-03-31T10:13:40.156Z,18.97
2019-03-31T10:16:09.948Z,16.63
2019-03-31T10:18:39.887Z,17.27
2019-03-31T10:21:09.593Z,19.03
2019-03-31T10:23:39.217Z,16.57
2019-03-31T10:26:09.020Z,16.20
2019-03-31T10:28:38.641Z,17.07
2019-03-31T10:31:08.635Z,21.73
2019-03-31T10:33:38.268Z,23.37
2019-03-31T10:36:08.076Z,17.67
2019-03-31T10:38:37.729Z,17.00
2019-03-31T10:41:07.429Z,18.10
2019-03-31T10:43:37.184Z,18.90
2019-03-31T10:46:06.847Z,20.70
2019-03-31T10:48:36.576Z,23.77
2019-03-31T10:51:06.699Z,20.77
2019-03-31T10:53:36.360Z,22.27
2019-03-31T10:56:06.034Z,19.57
2019-03-31T10:58:36.122Z,21.50
2019-03-31T11:01:08.421Z,21.40
2019-03-31T11:03:38.838Z,19.03
2019-03-31T11:06:08.558Z,21.43
2019-03-31T11:08:38.262Z,22.53
2019-03-31T11:11:07.948Z,21.33
2019-03-31T11:13:37.735Z,23.77
2019-03-31T11:16:07.375Z,22.93
2019-03-31T11:18:37.103Z,21.90
2019-03-31T11:21:13.819Z,22.27
2019-03-31T11:23:43.888Z,24.00
2019-03-31T11:26:13.640Z,21.47
2019-03-31T11:28:43.315Z,24.23
2019-03-31T11:31:12.948Z,21.67
2019-03-31T11:33:42.986Z,18.60
2019-03-31T11:36:12.873Z,24.07
2019-03-31T11:38:42.571Z,22.83
2019-03-31T11:41:12.241Z,20.47
2019-03-31T11:43:41.902Z,20.67
2019-03-31T11:46:11.622Z,28.33
2019-03-31T11:48:41.303Z,24.10
2019-03-31T11:51:10.944Z,26.27
2019-03-31T11:53:41.046Z,21.20
2019-03-31T11:56:10.919Z,22.90
2019-03-31T11:58:40.675Z,25.13
2019-03-31T12:04:59.920Z,23.27
2019-03-31T12:07:59.937Z,25.83
2019-03-31T12:10:29.596Z,21.67
2019-03-31T12:12:59.308Z,17.60
2019-03-31T12:15:29.005Z,18.20
2019-03-31T12:17:58.672Z,18.13
2019-03-31T12:20:28.311Z,16.13
2019-03-31T12:22:58.285Z,15.80
2019-03-31T12:25:27.988Z,17.60
2019-03-31T12:27:58.113Z,15.40
2019-03-31T12:30:30.722Z,17.23
2019-03-31T12:33:00.415Z,21.00
2019-03-31T12:35:30.076Z,16.63
2019-03-31T12:37:59.835Z,13.00
2019-03-31T12:40:33.928Z,13.67
2019-03-31T12:43:03.608Z,14.90
2019-03-31T12:45:33.239Z,13.13
2019-03-31T12:48:02.893Z,11.73
2019-03-31T12:50:32.589Z,10.90
2019-03-31T12:53:02.295Z,10.43
2019-03-31T12:55:32.124Z,11.63
2019-03-31T12:58:01.782Z,9.88
2019-03-31T13:00:31.480Z,10.77
2019-03-31T13:03:01.201Z,8.97
2019-03-31T13:05:30.894Z,7.40
2019-03-31T13:08:00.649Z,8.60
2019-03-31T13:10:30.446Z,17.83
2019-03-31T13:13:00.157Z,8.17
2019-03-31T13:15:31.630Z,7.37
2019-03-31T13:18:01.737Z,9.30
2019-03-31T13:20:31.492Z,7.33
2019-03-31T13:23:01.205Z,6.90
2019-03-31T13:25:32.351Z,9.27
2019-03-31T13:28:05.378Z,8.53
2019-03-31T13:30:33.809Z,8.70
2019-03-31T13:33:03.457Z,7.27
2019-03-31T13:35:33.239Z,7.03
2019-03-31T13:38:11.038Z,10.53
2019-03-31T13:40:34.366Z,7.50
2019-03-31T13:43:04.182Z,7.70
2019-03-31T13:45:33.840Z,13.83
2019-03-31T13:48:03.507Z,9.57
2019-03-31T13:50:33.254Z,8.40
2019-03-31T13:53:03.100Z,10.90
2019-03-31T13:55:35.391Z,11.33
2019-03-31T13:58:07.692Z,11.20
2019-03-31T14:00:38.357Z,11.47
2019-03-31T14:03:07.959Z,8.20
2019-03-31T14:05:37.603Z,8.50
2019-03-31T14:08:30.064Z,9.20
2019-03-31T14:11:21.755Z,10.40
2019-03-31T14:13:55.773Z,9.67
2019-03-31T14:16:23.688Z,9.87
2019-03-31T14:18:53.365Z,12.03
2019-03-31T14:21:23.421Z,10.00
2019-03-31T14:23:53.218Z,8.63
2019-03-31T14:26:22.907Z,9.57
2019-03-31T14:28:52.562Z,11.23
2019-03-31T14:31:22.308Z,11.13
2019-03-31T14:33:51.942Z,8.23
2019-03-31T14:36:21.650Z,9.57
2019-03-31T14:38:51.403Z,8.57
2019-03-31T14:41:21.154Z,10.37
2019-03-31T14:43:50.964Z,11.30
2019-03-31T14:46:21.064Z,13.50
2019-03-31T14:48:50.739Z,10.37
2019-03-31T14:51:20.422Z,9.03
2019-03-31T14:53:50.227Z,9.07
2019-03-31T14:56:20.026Z,9.77
2019-03-31T14:58:49.832Z,8.90
2019-03-31T15:01:21.269Z,7.43
2019-03-31T15:03:53.154Z,8.30
2019-03-31T15:06:24.412Z,7.17
2019-03-31T15:08:58.071Z,7.97
2019-03-31T15:11:27.802Z,7.13
2019-03-31T15:13:57.569Z,7.87
2019-03-31T15:16:27.452Z,14.97
2019-03-31T15:18:57.442Z,8.50
2019-03-31T15:21:29.031Z,9.57
2019-03-31T15:24:00.368Z,9.27
2019-03-31T15:26:30.473Z,7.87
2019-03-31T15:29:03.161Z,17.07
2019-03-31T15:31:43.344Z,8.37
2019-03-31T15:34:15.097Z,7.90
2019-03-31T15:36:51.045Z,7.37
2019-03-31T15:39:26.531Z,8.40
2019-03-31T15:41:58.873Z,11.07
2019-03-31T15:44:28.875Z,9.63
2019-03-31T15:47:06.202Z,9.47
2019-03-31T15:49:39.737Z,9.73
2019-03-31T15:52:16.000Z,8.13
2019-03-31T15:54:46.058Z,6.50
2019-03-31T15:57:16.397Z,7.77
2019-03-31T15:59:51.052Z,8.97
2019-03-31T16:02:22.566Z,7.90
2019-03-31T16:04:57.496Z,7.40
2019-03-31T16:07:27.671Z,8.93
2019-03-31T16:09:57.171Z,8.30
2019-03-31T16:12:27.093Z,8.90
2019-03-31T16:15:01.948Z,8.37
2019-03-31T16:17:33.375Z,8.53
2019-03-31T16:20:02.903Z,8.60
2019-03-31T16:22:39.893Z,8.07
2019-03-31T16:25:21.608Z,8.77
2019-03-31T16:27:50.952Z,11.53
2019-03-31T16:30:24.381Z,6.90
2019-03-31T16:32:57.811Z,7.30
2019-03-31T16:35:30.137Z,8.27
2019-03-31T16:37:59.535Z,6.63
2019-03-31T16:40:36.648Z,7.67
2019-03-31T16:43:05.850Z,10.07
2019-03-31T16:45:36.927Z,7.17
2019-03-31T16:48:15.599Z,6.67
2019-03-31T16:50:44.818Z,8.80
2019-03-31T16:53:14.063Z,8.18
2019-03-31T16:55:43.309Z,6.17
2019-03-31T16:58:18.308Z,6.40
2019-03-31T17:04:15.893Z,7.03
2019-03-31T17:06:45.243Z,9.40
2019-03-31T17:09:14.874Z,9.93
2019-03-31T17:11:46.451Z,7.17
2019-03-31T17:14:15.919Z,7.63
2019-03-31T17:16:45.028Z,10.07
2019-03-31T17:19:14.158Z,8.53
2019-03-31T17:21:43.454Z,15.07
2019-03-31T17:24:12.585Z,13.53
2019-03-31T17:26:41.706Z,9.33
2019-03-31T17:29:10.810Z,9.23
2019-03-31T17:31:39.957Z,6.93
2019-03-31T17:34:09.056Z,7.03
2019-03-31T17:36:38.251Z,8.40
2019-03-31T17:39:08.314Z,6.93
2019-03-31T17:41:37.458Z,7.27
2019-03-31T17:44:06.575Z,8.73
2019-03-31T17:46:35.744Z,7.07
2019-03-31T17:49:04.926Z,9.57
2019-03-31T17:51:34.057Z,6.60
2019-03-31T17:54:06.005Z,5.23
2019-03-31T17:56:34.055Z,9.30
2019-03-31T17:59:03.188Z,9.43
2019-03-31T18:01:32.295Z,8.50
2019-03-31T18:04:01.396Z,6.00
2019-03-31T18:06:30.509Z,7.50
2019-03-31T18:08:59.617Z,9.47
2019-03-31T18:11:29.221Z,4.10
2019-03-31T18:14:01.449Z,5.87
2019-03-31T18:16:31.404Z,7.70
2019-03-31T18:21:36.524Z,6.93
2019-03-31T18:24:05.855Z,8.90
2019-03-31T18:26:37.133Z,6.57
2019-03-31T18:29:06.570Z,7.83
2019-03-31T18:31:36.676Z,8.87
2019-03-31T18:34:07.422Z,7.10
2019-03-31T18:36:37.298Z,12.27
2019-03-31T18:39:07.700Z,12.30
2019-03-31T18:41:36.907Z,11.53
2019-03-31T18:44:06.270Z,9.40
2019-03-31T18:46:35.712Z,7.67
2019-03-31T18:49:05.920Z,10.97
2019-03-31T18:51:35.630Z,8.27
2019-03-31T18:54:29.887Z,11.13
2019-03-31T18:57:21.216Z,8.10
2019-03-31T19:00:04.649Z,5.17
2019-03-31T19:02:58.911Z,9.70
2019-03-31T19:05:59.185Z,8.17
2019-03-31T19:08:53.432Z,6.90
2019-03-31T19:11:47.761Z,6.13
2019-03-31T19:14:43.251Z,7.10
2019-03-31T19:17:44.253Z,7.53
2019-03-31T19:20:47.744Z,8.00
2019-03-31T19:23:33.232Z,4.63
2019-03-31T19:26:19.761Z,6.50
2019-03-31T19:29:11.624Z,7.80
2019-03-31T19:32:06.050Z,10.73
2019-03-31T19:35:06.341Z,7.53
2019-03-31T19:37:53.219Z,7.70
2019-03-31T19:40:41.605Z,7.30
2019-03-31T19:43:41.926Z,5.97
2019-03-31T19:46:30.073Z,7.77
2019-03-31T19:49:10.806Z,8.27
2019-03-31T19:52:06.572Z,5.40
2019-03-31T19:54:52.697Z,6.73
2019-03-31T19:57:46.106Z,7.50
2019-03-31T20:00:33.393Z,7.27
2019-03-31T20:03:11.008Z,6.50
2019-03-31T20:06:08.423Z,4.57
2019-03-31T20:08:44.846Z,7.57
2019-03-31T20:11:48.131Z,6.20
2019-03-31T20:14:40.651Z,9.27
2019-03-31T20:17:27.448Z,4.97
2019-03-31T20:20:18.350Z,9.63
2019-03-31T20:23:00.152Z,6.80
2019-03-31T20:25:44.855Z,7.87
2019-03-31T20:28:38.133Z,7.73
2019-03-31T20:31:14.071Z,8.93
2019-03-31T20:34:17.320Z,7.67
2019-03-31T20:37:04.599Z,7.20
2019-03-31T20:39:57.366Z,5.77
2019-03-31T20:42:46.924Z,9.60
2019-03-31T20:45:16.166Z,10.30
2019-03-31T20:47:45.358Z,9.60
2019-03-31T20:50:15.961Z,10.30
2019-03-31T20:52:45.089Z,9.10
2019-03-31T20:55:16.522Z,8.13
2019-03-31T20:57:45.141Z,9.43
2019-03-31T21:00:14.795Z,11.77
2019-03-31T21:02:44.017Z,12.23
2019-03-31T21:05:13.272Z,7.13
2019-03-31T21:07:42.713Z,7.03
2019-03-31T21:10:11.840Z,7.73
2019-03-31T21:12:40.985Z,10.47
2019-03-31T21:15:10.155Z,9.07
2019-03-31T21:17:39.282Z,6.90
2019-03-31T21:20:08.638Z,7.37
2019-03-31T21:22:37.749Z,7.10
2019-03-31T21:25:07.010Z,10.57
2019-03-31T21:27:36.083Z,10.43
2019-03-31T21:30:05.828Z,9.87
2019-03-31T21:32:34.970Z,8.57
2019-03-31T21:35:04.115Z,4.97
2019-03-31T21:37:33.277Z,10.10
2019-03-31T21:40:02.413Z,8.10
2019-03-31T21:42:31.519Z,21.97
2019-03-31T21:45:00.644Z,21.70
2019-03-31T21:47:29.785Z,13.77
2019-03-31T21:49:59.317Z,13.53
2019-03-31T21:52:28.366Z,8.03
2019-03-31T21:54:57.543Z,8.63
2019-03-31T21:57:26.695Z,10.87
2019-03-31T21:59:56.050Z,10.50
2019-03-31T22:02:25.399Z,5.03
2019-03-31T22:04:54.746Z,6.43
2019-03-31T22:07:23.880Z,8.53
2019-03-31T22:09:53.013Z,7.60
2019-03-31T22:12:22.361Z,7.80
2019-03-31T22:14:51.569Z,9.73
2019-03-31T22:17:20.788Z,8.63
2019-03-31T22:19:49.926Z,6.20
2019-03-31T22:22:19.064Z,8.33
2019-03-31T22:24:48.192Z,8.63
2019-03-31T22:27:17.321Z,6.43
2019-03-31T22:29:46.375Z,5.50
2019-03-31T22:32:15.610Z,6.10
2019-03-31T22:34:44.713Z,10.73
2019-03-31T22:37:13.843Z,7.10
2019-03-31T22:39:42.930Z,8.00
2019-03-31T22:42:12.024Z,7.83
2019-03-31T22:44:41.419Z,6.63
2019-03-31T22:47:10.537Z,5.67
2019-03-31T22:49:39.676Z,8.47
2019-03-31T22:52:08.784Z,8.10
2019-03-31T22:54:37.890Z,9.73
2019-03-31T22:57:07.120Z,10.53
2019-03-31T22:59:36.218Z,6.93
2019-03-31T23:02:05.344Z,9.00
2019-03-31T23:04:34.471Z,10.17
2019-03-31T23:07:04.078Z,6.97
2019-03-31T23:09:34.498Z,8.53
2019-03-31T23:12:03.745Z,8.50
2019-03-31T23:14:33.092Z,10.67
2019-03-31T23:17:02.198Z,8.53
2019-03-31T23:19:31.322Z,7.23
2019-03-31T23:22:00.421Z,6.80
2019-03-31T23:24:29.546Z,7.50
2019-03-31T23:26:58.632Z,7.77
2019-03-31T23:29:27.749Z,6.30
2019-03-31T23:31:56.878Z,6.40
2019-03-31T23:34:26.195Z,6.80
2019-03-31T23:36:55.290Z,7.93
2019-03-31T23:39:24.406Z,6.83
2019-03-31T23:41:53.497Z,5.47
2019-03-31T23:44:22.614Z,7.23
2019-03-31T23:46:51.768Z,8.13
2019-03-31T23:49:20.851Z,6.53
2019-03-31T23:51:49.984Z,10.57
2019-03-31T23:54:19.107Z,5.73
2019-03-31T23:56:48.193Z,8.27
2019-03-31T23:59:17.431Z,8.40
